Time;durP1;ratioP1;P1;durP2;ratioP2;P2;SDS_P1;SDS_P2;PMS_P1;PMS_P2;Temp;Humidity;BMP_temperature;BMP_pressure;BME280_temperature;BME280_humidity;BME280_pressure;Samples;Min_cycle;Max_cycle;Signal;HPM_P1;HPM_P2
2021/01/25 00:02:13;;;;;;;10.57;7.80;;;4.90;99.90;;;;;;5110847;28;20204;-73
2021/01/25 00:04:40;;;;;;;11.80;8.57;;;4.90;99.90;;;;;;5096815;28;20199;-74
2021/01/25 00:07:07;;;;;;;10.07;7.65;;;4.90;99.90;;;;;;5111797;28;20317;-74
2021/01/25 00:09:33;;;;;;;9.38;8.02;;;4.90;99.90;;;;;;5112496;28;20196;-74
2021/01/25 00:12:00;;;;;;;9.10;8.15;;;4.90;99.90;;;;;;5106525;28;20201;-74
2021/01/25 00:14:26;;;;;;;9.27;6.90;;;4.90;99.90;;;;;;5108904;28;20233;-74
2021/01/25 00:16:52;;;;;;;9.63;7.65;;;4.90;99.90;;;;;;5109892;28;20223;-74
2021/01/25 00:19:18;;;;;;;11.45;8.00;;;4.90;99.90;;;;;;5100945;28;20198;-74
2021/01/25 00:21:45;;;;;;;8.60;7.72;;;4.90;99.90;;;;;;5096853;28;20196;-74
2021/01/25 00:24:13;;;;;;;9.10;7.00;;;4.90;99.90;;;;;;5097612;28;20301;-74
2021/01/25 00:26:39;;;;;;;9.43;8.43;;;4.90;99.90;;;;;;5105491;28;20228;-74
2021/01/25 00:29:06;;;;;;;9.40;7.63;;;4.90;99.90;;;;;;5108469;28;20208;-74
2021/01/25 00:31:32;;;;;;;9.30;7.20;;;4.80;99.90;;;;;;5111261;28;20193;-74
2021/01/25 00:33:58;;;;;;;7.82;6.70;;;4.90;99.90;;;;;;5101190;28;20677;-74
2021/01/25 00:36:24;;;;;;;8.50;6.60;;;4.80;99.90;;;;;;5091544;28;20242;-74
2021/01/25 00:38:52;;;;;;;11.00;7.25;;;4.90;99.90;;;;;;5101932;28;20204;-74
2021/01/25 00:41:18;;;;;;;9.50;7.03;;;4.90;99.90;;;;;;5104594;28;20197;-74
2021/01/25 00:43:45;;;;;;;8.85;6.95;;;4.90;99.90;;;;;;5112054;28;20246;-74
2021/01/25 00:46:12;;;;;;;8.02;6.63;;;4.80;99.90;;;;;;5095801;28;20719;-74
2021/01/25 00:48:38;;;;;;;9.02;5.35;;;4.80;99.90;;;;;;5111249;28;20299;-74
2021/01/25 00:51:05;;;;;;;7.38;6.63;;;4.80;99.90;;;;;;5108855;28;20257;-73
2021/01/25 00:53:31;;;;;;;9.13;7.07;;;4.80;99.90;;;;;;5096819;28;20522;-73
2021/01/25 00:55:58;;;;;;;6.28;5.68;;;4.80;99.90;;;;;;5091402;28;20223;-73
2021/01/25 00:58:24;;;;;;;7.93;6.38;;;4.90;99.90;;;;;;5096531;28;20194;-73
2021/01/25 01:00:51;;;;;;;7.25;6.53;;;4.80;99.90;;;;;;5107933;28;20193;-73
2021/01/25 01:03:17;;;;;;;8.45;6.45;;;4.80;99.90;;;;;;5111456;28;20197;-72
2021/01/25 01:05:43;;;;;;;7.15;5.60;;;4.80;99.90;;;;;;5106999;28;20566;-72
2021/01/25 01:08:09;;;;;;;7.25;5.80;;;4.80;99.90;;;;;;5109939;28;20921;-72
2021/01/25 01:10:36;;;;;;;7.05;6.35;;;4.80;99.90;;;;;;5110181;28;20593;-73
2021/01/25 01:13:03;;;;;;;7.18;5.53;;;4.80;99.90;;;;;;5099617;28;20197;-73
2021/01/25 01:15:29;;;;;;;8.35;6.20;;;4.80;99.90;;;;;;5108491;28;20193;-73
2021/01/25 01:17:56;;;;;;;6.53;5.82;;;4.80;99.90;;;;;;5108653;28;20717;-73
2021/01/25 01:20:22;;;;;;;6.25;5.65;;;4.80;99.90;;;;;;5105273;28;20304;-73
2021/01/25 01:22:48;;;;;;;5.95;4.97;;;4.80;99.90;;;;;;5106490;28;20197;-73
2021/01/25 01:25:15;;;;;;;6.82;5.35;;;4.80;99.90;;;;;;5111536;28;20518;-73
2021/01/25 01:27:41;;;;;;;6.55;5.85;;;4.70;99.90;;;;;;5099034;28;20193;-73
2021/01/25 01:30:09;;;;;;;6.30;5.47;;;4.80;99.90;;;;;;5088444;28;20197;-74
2021/01/25 01:32:36;;;;;;;7.75;5.90;;;4.80;99.90;;;;;;5108534;28;20227;-74
2021/01/25 01:35:02;;;;;;;6.80;5.97;;;4.80;99.90;;;;;;5108446;28;20193;-74
2021/01/25 01:37:28;;;;;;;7.82;5.45;;;4.80;99.90;;;;;;5110618;28;20220;-73
2021/01/25 01:39:54;;;;;;;5.90;5.20;;;4.70;99.90;;;;;;5111368;28;20590;-74
2021/01/25 01:42:21;;;;;;;8.57;6.15;;;4.70;99.90;;;;;;5109917;28;20522;-73
2021/01/25 01:44:47;;;;;;;8.55;6.10;;;4.70;99.90;;;;;;5091093;28;20269;-74
2021/01/25 01:47:19;;;;;;;7.72;5.97;;;4.80;99.90;;;;;;5096588;28;20270;-74
2021/01/25 01:49:46;;;;;;;6.45;5.10;;;4.70;99.90;;;;;;5110686;28;20191;-74
2021/01/25 01:52:13;;;;;;;6.30;5.30;;;4.70;99.90;;;;;;5099300;28;20221;-74
2021/01/25 01:54:40;;;;;;;5.30;4.80;;;4.70;99.90;;;;;;5111161;28;20201;-74
2021/01/25 01:57:06;;;;;;;7.18;6.00;;;4.70;99.90;;;;;;5101080;28;20299;-74
2021/01/25 01:59:33;;;;;;;7.75;5.10;;;4.70;99.90;;;;;;5108316;28;20201;-74
2021/01/25 02:01:59;;;;;;;7.10;4.93;;;4.70;99.90;;;;;;5104940;28;20205;-74
2021/01/25 02:04:27;;;;;;;6.40;5.10;;;4.70;99.90;;;;;;5106520;28;20351;-74
2021/01/25 02:06:56;;;;;;;6.05;4.72;;;4.70;99.90;;;;;;5109041;28;20207;-74
2021/01/25 02:09:24;;;;;;;6.47;5.30;;;4.70;99.90;;;;;;5113237;28;20663;-74
2021/01/25 02:11:51;;;;;;;7.47;5.65;;;4.70;99.90;;;;;;5114250;28;20518;-74
2021/01/25 02:14:18;;;;;;;6.32;5.20;;;4.70;99.90;;;;;;5110891;28;20201;-73
2021/01/25 02:16:45;;;;;;;6.28;4.68;;;4.70;99.90;;;;;;5097441;28;20224;-73
2021/01/25 02:19:14;;;;;;;7.22;5.75;;;4.70;99.90;;;;;;5090467;28;20197;-73
2021/01/25 02:21:51;;;;;;;5.95;5.10;;;4.70;99.90;;;;;;5104853;28;20192;-72
2021/01/25 02:24:31;;;;;;;5.20;4.70;;;4.70;99.90;;;;;;5106498;28;20203;-73
2021/01/25 02:27:26;;;;;;;5.90;5.38;;;4.60;99.90;;;;;;5106995;28;20192;-73
2021/01/25 02:29:53;;;;;;;7.40;5.38;;;4.60;99.90;;;;;;5106943;28;20547;-73
2021/01/25 02:32:20;;;;;;;5.70;5.15;;;4.70;99.90;;;;;;5114940;28;20200;-72
2021/01/25 02:34:47;;;;;;;8.52;5.55;;;4.60;99.90;;;;;;5113190;28;20247;-73
2021/01/25 02:37:14;;;;;;;6.18;5.00;;;4.60;99.90;;;;;;5113429;28;20299;-73
2021/01/25 02:39:41;;;;;;;6.25;5.07;;;4.60;99.90;;;;;;5101862;28;20621;-73
2021/01/25 02:42:09;;;;;;;6.82;5.22;;;4.60;99.90;;;;;;5105353;28;20220;-73
2021/01/25 02:44:38;;;;;;;5.40;4.85;;;4.60;99.90;;;;;;5093703;28;20209;-74
2021/01/25 02:47:04;;;;;;;6.70;5.93;;;4.60;99.90;;;;;;5102393;28;20194;-74
2021/01/25 02:49:31;;;;;;;9.05;5.72;;;4.60;99.90;;;;;;5112100;28;20216;-74
2021/01/25 02:51:57;;;;;;;5.35;4.85;;;4.60;99.90;;;;;;5100416;28;20653;-74
2021/01/25 02:54:24;;;;;;;5.68;4.93;;;4.60;99.90;;;;;;5107288;28;20194;-74
2021/01/25 02:56:50;;;;;;;7.63;4.97;;;4.60;99.90;;;;;;5108696;28;20222;-74
2021/01/25 02:59:18;;;;;;;6.82;5.55;;;4.60;99.90;;;;;;5111797;28;20204;-74
2021/01/25 03:01:46;;;;;;;8.77;5.78;;;4.60;99.90;;;;;;5103081;28;20219;-74
2021/01/25 03:04:14;;;;;;;7.72;5.38;;;4.60;99.90;;;;;;5093592;28;20251;-73
2021/01/25 03:06:41;;;;;;;5.63;4.93;;;4.50;99.90;;;;;;5108475;28;20193;-73
2021/01/25 03:09:08;;;;;;;6.93;4.95;;;4.50;99.90;;;;;;5111379;28;20197;-73
2021/01/25 03:11:34;;;;;;;6.97;5.00;;;4.60;99.90;;;;;;5106609;28;20258;-72
2021/01/25 03:14:06;;;;;;;8.63;5.72;;;4.50;99.90;;;;;;5095601;28;20208;-74
2021/01/25 03:16:32;;;;;;;7.38;5.18;;;4.50;99.90;;;;;;5110786;28;20245;-74
2021/01/25 03:18:59;;;;;;;7.95;5.50;;;4.50;99.90;;;;;;5111223;28;20200;-74
2021/01/25 03:21:26;;;;;;;7.68;4.95;;;4.50;99.90;;;;;;5097109;28;20217;-74
2021/01/25 03:23:53;;;;;;;7.95;5.18;;;4.60;99.90;;;;;;5106725;28;20201;-74
2021/01/25 03:26:19;;;;;;;5.55;4.95;;;4.50;99.90;;;;;;5096222;28;20194;-74
2021/01/25 03:28:45;;;;;;;5.95;5.20;;;4.50;99.90;;;;;;5101211;28;20214;-74
2021/01/25 03:31:11;;;;;;;6.65;5.32;;;4.50;99.90;;;;;;5102018;28;20201;-74
2021/01/25 03:33:38;;;;;;;8.18;5.82;;;4.50;99.90;;;;;;5112867;28;20207;-74
2021/01/25 03:36:06;;;;;;;5.78;4.88;;;4.50;99.90;;;;;;5112270;28;20200;-74
2021/01/25 03:38:32;;;;;;;7.25;5.07;;;4.50;99.90;;;;;;5105873;28;20567;-74
2021/01/25 03:40:59;;;;;;;6.78;5.40;;;4.50;99.90;;;;;;5111280;28;20750;-74
2021/01/25 03:43:25;;;;;;;5.95;4.47;;;4.50;99.90;;;;;;5104880;28;20197;-74
2021/01/25 03:45:52;;;;;;;5.45;4.95;;;4.50;99.90;;;;;;5112650;28;20228;-74
2021/01/25 03:48:18;;;;;;;8.07;6.18;;;4.50;99.90;;;;;;5111444;28;20567;-74
2021/01/25 03:50:45;;;;;;;5.57;4.75;;;4.50;99.90;;;;;;5098055;28;20201;-74
2021/01/25 03:53:12;;;;;;;8.43;5.68;;;4.40;99.90;;;;;;5095363;28;20200;-74
2021/01/25 03:55:38;;;;;;;8.07;5.50;;;4.50;99.90;;;;;;5089257;28;20199;-74
2021/01/25 03:58:04;;;;;;;6.57;4.70;;;4.50;99.90;;;;;;5089295;28;20231;-74
2021/01/25 04:00:31;;;;;;;5.43;4.32;;;4.50;99.90;;;;;;5100231;28;20544;-74
2021/01/25 04:02:57;;;;;;;6.32;5.60;;;4.50;99.90;;;;;;5112770;28;20197;-74
2021/01/25 04:05:23;;;;;;;7.60;5.43;;;4.50;99.90;;;;;;5102328;28;20200;-74
2021/01/25 04:07:50;;;;;;;7.97;6.20;;;4.50;99.90;;;;;;5108674;28;20200;-74
2021/01/25 04:10:17;;;;;;;7.90;5.55;;;4.50;99.90;;;;;;5105109;28;20218;-74
2021/01/25 04:12:43;;;;;;;6.30;5.70;;;4.50;99.90;;;;;;5106894;28;20193;-73
2021/01/25 04:15:10;;;;;;;5.60;4.72;;;4.50;99.90;;;;;;5108549;28;20197;-73
2021/01/25 04:17:37;;;;;;;6.57;5.05;;;4.50;99.90;;;;;;5107602;28;20213;-74
2021/01/25 04:20:05;;;;;;;5.07;4.30;;;4.40;99.90;;;;;;5107947;28;20206;-73
2021/01/25 04:22:32;;;;;;;6.22;5.63;;;4.40;99.90;;;;;;5106653;28;20211;-73
2021/01/25 04:24:58;;;;;;;6.72;5.65;;;4.40;99.90;;;;;;5107364;28;20197;-74
2021/01/25 04:27:25;;;;;;;6.05;5.47;;;4.50;99.90;;;;;;5108421;28;20192;-74
2021/01/25 04:29:52;;;;;;;5.72;5.15;;;4.40;99.90;;;;;;5105152;28;20257;-74
2021/01/25 04:32:18;;;;;;;8.18;6.00;;;4.40;99.90;;;;;;5108108;28;20207;-73
2021/01/25 04:34:45;;;;;;;10.13;5.95;;;4.40;99.90;;;;;;5106402;28;20196;-73
2021/01/25 04:37:11;;;;;;;7.95;5.10;;;4.40;99.90;;;;;;5106967;28;20212;-74
2021/01/25 04:39:37;;;;;;;6.38;4.97;;;4.40;99.90;;;;;;5107940;28;20203;-74
2021/01/25 04:42:04;;;;;;;6.13;5.47;;;4.50;99.90;;;;;;5105816;28;20239;-74
2021/01/25 04:44:32;;;;;;;6.82;5.70;;;4.40;99.90;;;;;;5110111;28;20201;-74
2021/01/25 04:47:01;;;;;;;6.15;4.60;;;4.40;99.90;;;;;;5111386;28;20549;-74
2021/01/25 04:49:28;;;;;;;9.23;4.68;;;4.40;99.90;;;;;;5107336;28;20207;-74
2021/01/25 04:51:56;;;;;;;7.45;5.35;;;4.40;99.90;;;;;;5109370;28;20266;-73
2021/01/25 04:54:23;;;;;;;9.35;6.07;;;4.40;99.90;;;;;;5105608;28;20311;-73
2021/01/25 04:56:51;;;;;;;6.93;6.13;;;4.40;99.90;;;;;;5111642;28;20217;-73
2021/01/25 04:59:17;;;;;;;6.25;5.45;;;4.50;99.90;;;;;;5109867;28;20189;-73
2021/01/25 05:01:45;;;;;;;6.13;5.05;;;4.40;99.90;;;;;;5102708;28;20201;-73
2021/01/25 05:04:11;;;;;;;8.20;4.90;;;4.40;99.90;;;;;;5111446;28;20302;-73
2021/01/25 05:06:37;;;;;;;7.18;5.47;;;4.40;99.90;;;;;;5109974;28;20284;-73
2021/01/25 05:09:04;;;;;;;6.45;4.97;;;4.40;99.90;;;;;;5103815;28;20200;-73
2021/01/25 05:11:31;;;;;;;6.15;5.55;;;4.40;99.90;;;;;;5111694;28;20264;-73
2021/01/25 05:14:03;;;;;;;5.80;5.18;;;4.40;99.90;;;;;;5093316;28;20683;-73
2021/01/25 05:16:31;;;;;;;6.18;5.03;;;4.40;99.90;;;;;;5107091;28;20295;-73
2021/01/25 05:19:01;;;;;;;6.88;5.50;;;4.40;99.90;;;;;;5106916;28;20201;-73
2021/01/25 05:21:35;;;;;;;5.82;5.15;;;4.40;99.90;;;;;;5105222;28;20264;-74
2021/01/25 05:24:06;;;;;;;6.30;4.72;;;4.30;99.90;;;;;;5107102;28;20207;-73
2021/01/25 05:26:33;;;;;;;6.50;5.05;;;4.30;99.90;;;;;;5106986;28;20193;-73
2021/01/25 05:28:59;;;;;;;7.75;6.38;;;4.30;99.90;;;;;;5106586;28;20204;-73
2021/01/25 05:31:26;;;;;;;5.40;4.72;;;4.30;99.90;;;;;;5107081;28;20197;-73
2021/01/25 05:33:53;;;;;;;5.47;4.45;;;4.30;99.90;;;;;;5106339;28;20250;-73
2021/01/25 05:36:21;;;;;;;9.15;5.60;;;4.30;99.90;;;;;;5106628;28;20200;-73
2021/01/25 05:38:49;;;;;;;4.95;4.45;;;4.30;99.90;;;;;;5107454;28;20200;-74
2021/01/25 05:41:16;;;;;;;7.28;5.28;;;4.30;99.90;;;;;;5106289;28;20197;-74
2021/01/25 05:43:43;;;;;;;5.57;4.57;;;4.30;99.90;;;;;;5111231;28;20200;-74
2021/01/25 05:46:10;;;;;;;7.60;6.10;;;4.30;99.90;;;;;;5110560;28;20224;-74
2021/01/25 05:48:37;;;;;;;6.60;5.90;;;4.30;99.90;;;;;;5111157;28;20283;-74
2021/01/25 05:51:15;;;;;;;6.95;5.50;;;4.30;99.90;;;;;;5105854;28;20192;-74
2021/01/25 05:53:44;;;;;;;8.50;5.40;;;4.30;99.90;;;;;;5099011;28;20196;-74
2021/01/25 05:56:12;;;;;;;6.97;5.60;;;4.30;99.90;;;;;;5093455;28;20193;-74
2021/01/25 05:58:38;;;;;;;5.75;5.25;;;4.30;99.90;;;;;;5109056;28;20212;-74
2021/01/25 06:01:06;;;;;;;5.70;5.00;;;4.20;99.90;;;;;;5110282;28;20195;-74
2021/01/25 06:03:37;;;;;;;5.97;5.38;;;4.30;99.90;;;;;;5113196;28;20196;-74
2021/01/25 06:06:07;;;;;;;6.78;5.70;;;4.20;99.90;;;;;;5114166;28;20203;-74
2021/01/25 06:08:59;;;;;;;7.13;6.43;;;4.30;99.90;;;;;;5111011;28;20629;-74
2021/01/25 06:11:28;;;;;;;7.13;5.72;;;4.30;99.90;;;;;;5114287;28;20201;-73
2021/01/25 06:13:58;;;;;;;6.60;5.60;;;4.30;99.90;;;;;;5111852;28;20220;-74
2021/01/25 06:16:27;;;;;;;6.78;6.00;;;4.30;99.90;;;;;;5114685;28;20253;-74
2021/01/25 06:18:57;;;;;;;8.77;6.25;;;4.30;99.90;;;;;;5113504;28;20197;-74
2021/01/25 06:21:26;;;;;;;7.85;6.38;;;4.30;99.90;;;;;;5112732;28;20203;-73
2021/01/25 06:23:54;;;;;;;8.93;6.47;;;4.30;99.90;;;;;;5103271;28;20279;-73
2021/01/25 06:26:23;;;;;;;8.05;6.10;;;4.40;99.90;;;;;;5112765;28;20270;-73
2021/01/25 06:28:51;;;;;;;6.72;5.88;;;4.30;99.90;;;;;;5113370;28;20197;-73
2021/01/25 06:31:18;;;;;;;5.80;5.20;;;4.30;99.90;;;;;;5095552;28;20681;-74
2021/01/25 06:33:48;;;;;;;7.55;6.03;;;4.30;99.90;;;;;;5101515;28;20197;-74
2021/01/25 06:36:17;;;;;;;6.07;4.88;;;4.30;99.90;;;;;;5108984;28;20205;-74
2021/01/25 06:38:44;;;;;;;9.10;6.75;;;4.30;99.90;;;;;;5113500;28;20514;-74
2021/01/25 06:41:13;;;;;;;6.65;5.85;;;4.30;99.90;;;;;;5114399;28;20200;-74
2021/01/25 06:43:41;;;;;;;6.80;5.47;;;4.20;99.90;;;;;;5113747;28;20197;-74
2021/01/25 06:46:08;;;;;;;6.60;5.32;;;4.30;99.90;;;;;;5107281;28;20227;-74
2021/01/25 06:48:34;;;;;;;8.77;5.72;;;4.20;99.90;;;;;;5108581;28;20200;-74
2021/01/25 06:51:04;;;;;;;8.05;5.88;;;4.20;99.90;;;;;;5109224;28;20193;-74
2021/01/25 06:53:31;;;;;;;6.47;5.63;;;4.30;99.90;;;;;;5108396;27;20201;-74
2021/01/25 06:55:58;;;;;;;5.93;4.93;;;4.30;99.90;;;;;;5107004;28;20528;-74
2021/01/25 06:58:29;;;;;;;7.25;6.35;;;4.40;99.90;;;;;;5112686;28;20221;-75
2021/01/25 07:00:56;;;;;;;7.55;6.15;;;4.20;99.90;;;;;;5113704;28;20935;-74
2021/01/25 07:03:23;;;;;;;7.70;5.93;;;4.30;99.90;;;;;;5111430;28;20257;-74
2021/01/25 07:05:57;;;;;;;5.88;5.28;;;4.30;99.90;;;;;;5113908;28;20253;-74
2021/01/25 07:08:25;;;;;;;8.85;5.53;;;4.20;99.90;;;;;;5111279;28;20250;-74
2021/01/25 07:10:57;;;;;;;7.20;6.45;;;4.30;99.90;;;;;;5099471;28;20201;-74
2021/01/25 07:13:25;;;;;;;7.90;5.57;;;4.20;99.90;;;;;;5104080;28;20197;-74
2021/01/25 07:15:53;;;;;;;6.32;5.72;;;4.20;99.90;;;;;;5113734;28;20532;-74
2021/01/25 07:18:20;;;;;;;6.32;5.40;;;4.20;99.90;;;;;;5104650;28;20558;-74
2021/01/25 07:20:47;;;;;;;9.90;5.68;;;4.20;99.90;;;;;;5112102;28;20632;-74
2021/01/25 07:23:19;;;;;;;7.07;6.00;;;4.20;99.90;;;;;;5111483;28;20192;-74
2021/01/25 07:25:52;;;;;;;7.45;5.80;;;4.20;99.90;;;;;;5103536;28;20197;-74
2021/01/25 07:28:18;;;;;;;7.47;5.35;;;4.30;99.90;;;;;;5111993;28;20173;-74
2021/01/25 07:30:45;;;;;;;8.50;5.43;;;4.20;99.90;;;;;;5108191;28;20284;-73
2021/01/25 07:33:12;;;;;;;8.93;6.40;;;4.30;99.90;;;;;;5106459;28;20189;-73
2021/01/25 07:35:38;;;;;;;5.53;5.03;;;4.20;99.90;;;;;;5104584;28;20203;-74
2021/01/25 07:38:05;;;;;;;7.82;6.25;;;4.20;99.90;;;;;;5109490;28;20209;-74
2021/01/25 07:40:31;;;;;;;8.25;6.20;;;4.20;99.90;;;;;;5106359;28;20737;-74
2021/01/25 07:42:57;;;;;;;6.57;5.90;;;4.20;99.90;;;;;;5106011;28;20204;-74
2021/01/25 07:45:24;;;;;;;7.25;6.47;;;4.20;99.90;;;;;;5103976;28;20243;-74
2021/01/25 07:47:51;;;;;;;7.75;5.88;;;4.20;99.90;;;;;;5098905;28;20193;-74
2021/01/25 07:50:19;;;;;;;7.88;6.53;;;4.20;99.90;;;;;;5101915;28;20201;-74
2021/01/25 07:52:45;;;;;;;7.80;6.60;;;4.30;99.90;;;;;;5108882;28;20205;-74
2021/01/25 07:55:13;;;;;;;5.70;5.20;;;4.30;99.90;;;;;;5092939;28;20204;-74
2021/01/25 07:57:40;;;;;;;6.75;5.43;;;4.30;99.90;;;;;;5097165;28;20698;-74
2021/01/25 08:00:22;;;;;;;5.97;5.38;;;4.30;99.90;;;;;;5103783;28;20192;-73
2021/01/25 08:02:55;;;;;;;6.45;5.72;;;4.20;99.90;;;;;;5102047;27;20223;-74
2021/01/25 08:05:24;;;;;;;7.97;6.10;;;4.30;99.90;;;;;;5102292;28;20205;-74
2021/01/25 08:07:51;;;;;;;7.63;6.05;;;4.30;99.90;;;;;;5106399;28;20544;-74
2021/01/25 08:10:18;;;;;;;7.70;5.85;;;4.30;99.90;;;;;;5102492;28;20636;-74
2021/01/25 08:12:46;;;;;;;9.20;6.60;;;4.30;99.90;;;;;;5104180;28;20208;-74
2021/01/25 08:15:19;;;;;;;8.90;6.07;;;4.30;99.90;;;;;;5106590;28;20193;-74
2021/01/25 08:17:51;;;;;;;6.97;5.60;;;4.30;99.90;;;;;;5107311;28;20217;-74
2021/01/25 08:20:21;;;;;;;6.38;5.13;;;4.40;99.90;;;;;;5108091;28;20196;-74
2021/01/25 08:22:55;;;;;;;6.57;5.88;;;4.30;99.90;;;;;;5106438;28;20694;-74
2021/01/25 08:25:24;;;;;;;8.93;6.78;;;4.30;99.90;;;;;;5107611;28;20212;-74
2021/01/25 08:27:59;;;;;;;6.85;5.88;;;4.40;99.90;;;;;;5108376;28;20532;-74
2021/01/25 08:30:32;;;;;;;6.35;5.72;;;4.30;99.90;;;;;;5104297;27;20203;-74
2021/01/25 08:33:02;;;;;;;8.38;6.45;;;4.30;99.90;;;;;;5107997;28;20258;-74
2021/01/25 08:35:32;;;;;;;7.75;6.65;;;4.30;99.90;;;;;;5107257;28;20197;-74
2021/01/25 08:38:21;;;;;;;9.88;6.15;;;4.30;99.90;;;;;;5107485;28;20213;-74
2021/01/25 08:40:48;;;;;;;10.57;6.32;;;4.30;99.90;;;;;;5104524;28;20193;-74
2021/01/25 08:43:20;;;;;;;6.47;5.88;;;4.30;99.90;;;;;;5107896;28;20235;-74
2021/01/25 08:45:47;;;;;;;6.68;5.97;;;4.30;99.90;;;;;;5104867;28;20260;-74
2021/01/25 08:48:14;;;;;;;9.73;5.45;;;4.30;99.90;;;;;;5107752;28;20199;-74
2021/01/25 08:50:41;;;;;;;8.82;6.28;;;4.30;99.90;;;;;;5105490;27;20247;-74
2021/01/25 08:53:10;;;;;;;8.82;6.10;;;4.30;99.90;;;;;;5107165;28;20197;-72
2021/01/25 08:55:40;;;;;;;7.88;5.60;;;4.30;99.90;;;;;;5102058;28;20653;-74
2021/01/25 08:58:16;;;;;;;8.02;6.60;;;4.30;99.90;;;;;;5104603;28;20220;-73
2021/01/25 09:00:43;;;;;;;8.23;7.43;;;4.30;99.90;;;;;;5113288;27;20270;-74
2021/01/25 09:03:12;;;;;;;8.95;6.63;;;4.40;99.90;;;;;;5109099;27;20556;-74
2021/01/25 09:05:39;;;;;;;7.97;6.65;;;4.30;99.90;;;;;;5110124;28;20227;-72
2021/01/25 09:08:06;;;;;;;8.68;6.35;;;4.40;99.90;;;;;;5109684;28;20193;-74
2021/01/25 09:10:33;;;;;;;7.57;5.88;;;4.30;99.90;;;;;;5107932;28;20619;-75
2021/01/25 09:12:59;;;;;;;8.60;6.45;;;4.30;99.90;;;;;;5107229;27;20621;-75
2021/01/25 09:15:26;;;;;;;7.60;6.22;;;4.30;99.90;;;;;;5104081;28;20551;-75
2021/01/25 09:17:53;;;;;;;9.95;6.63;;;4.40;99.90;;;;;;5109711;28;20208;-75
2021/01/25 09:20:20;;;;;;;7.15;6.05;;;4.40;99.90;;;;;;5110603;28;20200;-82
2021/01/25 09:22:47;;;;;;;7.22;5.78;;;4.50;99.90;;;;;;5107695;28;20197;-74
2021/01/25 09:25:15;;;;;;;11.32;7.57;;;4.50;99.90;;;;;;5104113;28;20586;-73
2021/01/25 09:27:41;;;;;;;8.98;5.97;;;4.50;99.90;;;;;;5106221;28;20189;-73
2021/01/25 09:30:10;;;;;;;11.50;7.82;;;4.70;99.90;;;;;;5106372;28;20648;-73
2021/01/25 09:32:36;;;;;;;7.30;6.60;;;4.70;99.90;;;;;;5106711;28;20737;-73
2021/01/25 09:35:04;;;;;;;9.05;7.82;;;4.70;99.90;;;;;;5106082;28;20197;-73
2021/01/25 09:37:31;;;;;;;10.68;7.30;;;4.70;99.90;;;;;;5106676;28;20255;-74
2021/01/25 09:39:58;;;;;;;10.85;6.85;;;4.70;99.90;;;;;;5106012;28;20212;-73
2021/01/25 09:42:24;;;;;;;11.00;6.80;;;4.70;99.90;;;;;;5106430;28;20211;-73
2021/01/25 09:44:50;;;;;;;9.57;7.30;;;4.70;99.90;;;;;;5106964;28;20224;-73
2021/01/25 09:47:17;;;;;;;8.35;7.43;;;4.70;99.90;;;;;;5103564;28;20521;-73
2021/01/25 09:49:44;;;;;;;11.57;7.35;;;4.70;99.90;;;;;;5104716;28;20193;-73
2021/01/25 09:52:10;;;;;;;9.60;7.72;;;4.70;99.90;;;;;;5092960;28;20209;-73
2021/01/25 09:54:39;;;;;;;8.10;7.30;;;4.70;99.90;;;;;;5103655;28;20207;-73
2021/01/25 09:57:05;;;;;;;9.52;7.25;;;4.70;99.90;;;;;;5105054;28;20220;-73
2021/01/25 09:59:31;;;;;;;12.68;10.27;;;4.80;99.90;;;;;;5107022;28;20625;-73
2021/01/25 10:01:58;;;;;;;10.77;8.25;;;4.80;99.90;;;;;;5106442;28;20200;-73
2021/01/25 10:04:25;;;;;;;10.18;9.13;;;4.80;99.90;;;;;;5105321;28;20197;-73
2021/01/25 10:06:51;;;;;;;10.93;8.60;;;4.80;99.90;;;;;;5110784;28;20193;-73
2021/01/25 10:09:17;;;;;;;9.13;6.97;;;4.80;99.90;;;;;;5094051;28;20261;-73
2021/01/25 10:11:45;;;;;;;12.48;9.00;;;4.80;99.90;;;;;;5109628;28;20624;-73
2021/01/25 10:14:11;;;;;;;12.90;8.70;;;4.80;99.90;;;;;;5108133;28;20200;-73
2021/01/25 10:16:38;;;;;;;10.10;7.70;;;4.90;99.90;;;;;;5105006;28;20201;-74
2021/01/25 10:19:04;;;;;;;10.98;8.90;;;4.80;99.90;;;;;;5108827;28;20197;-73
2021/01/25 10:21:30;;;;;;;10.55;7.97;;;4.80;99.90;;;;;;5109419;28;20718;-73
2021/01/25 10:23:56;;;;;;;13.18;8.90;;;4.80;99.90;;;;;;5100031;28;20198;-72
2021/01/25 10:26:23;;;;;;;11.77;7.63;;;4.90;99.90;;;;;;5108254;28;20211;-73
2021/01/25 10:28:50;;;;;;;10.48;8.57;;;4.90;99.90;;;;;;5111311;28;20188;-73
2021/01/25 10:31:17;;;;;;;12.07;8.73;;;4.90;99.90;;;;;;5112928;28;20208;-72
2021/01/25 10:33:44;;;;;;;12.00;9.10;;;5.00;99.90;;;;;;5113696;28;20254;-73
2021/01/25 10:36:10;;;;;;;11.43;8.52;;;4.90;99.90;;;;;;5109712;27;20621;-72
2021/01/25 10:38:37;;;;;;;9.07;7.70;;;4.80;99.90;;;;;;5110929;27;20216;-73
2021/01/25 10:41:03;;;;;;;12.07;8.45;;;4.90;99.90;;;;;;5123222;27;20200;-72
2021/01/25 10:43:29;;;;;;;10.05;8.52;;;5.00;99.90;;;;;;5117739;27;20197;-71
2021/01/25 10:45:57;;;;;;;8.82;7.70;;;5.00;99.90;;;;;;5116600;27;20233;-73
2021/01/25 10:48:23;;;;;;;9.57;8.52;;;4.90;99.90;;;;;;5113329;27;20208;-72
2021/01/25 10:50:49;;;;;;;9.10;7.90;;;4.90;99.90;;;;;;5111179;27;20201;-72
2021/01/25 10:53:17;;;;;;;9.57;7.85;;;4.90;99.90;;;;;;5109149;27;20256;-72
2021/01/25 10:55:43;;;;;;;10.52;7.28;;;4.90;99.90;;;;;;5109086;28;20197;-72
2021/01/25 10:58:09;;;;;;;9.43;7.40;;;4.90;99.90;;;;;;5110287;27;20216;-73
2021/01/25 11:00:35;;;;;;;11.00;8.05;;;5.00;99.90;;;;;;5108195;27;20517;-72
2021/01/25 11:03:03;;;;;;;8.18;7.35;;;5.00;99.90;;;;;;5109382;28;20200;-72
2021/01/25 11:05:29;;;;;;;7.85;6.50;;;5.00;99.90;;;;;;5110118;28;20231;-71
2021/01/25 11:07:56;;;;;;;11.38;8.50;;;5.00;99.90;;;;;;5109110;28;20197;-73
2021/01/25 11:10:25;;;;;;;11.18;7.70;;;5.00;99.90;;;;;;5107874;28;20207;-72
2021/01/25 11:12:52;;;;;;;7.82;7.03;;;5.10;99.90;;;;;;5109428;28;20196;-71
2021/01/25 11:15:19;;;;;;;7.78;6.97;;;5.10;99.90;;;;;;5106728;28;20200;-71
2021/01/25 11:17:45;;;;;;;7.28;6.57;;;5.10;99.90;;;;;;5108402;27;20508;-71
2021/01/25 11:20:13;;;;;;;8.10;6.82;;;5.10;99.90;;;;;;5107218;28;20197;-71
2021/01/25 11:22:40;;;;;;;8.57;7.68;;;5.00;99.90;;;;;;5109672;28;20207;-71
2021/01/25 11:25:08;;;;;;;7.90;6.75;;;5.00;99.90;;;;;;5097342;28;20200;-72
2021/01/25 11:27:34;;;;;;;7.53;6.80;;;4.90;99.90;;;;;;5113445;28;20200;-72
2021/01/25 11:30:00;;;;;;;8.98;5.78;;;4.90;99.90;;;;;;5110831;28;20708;-71
2021/01/25 11:32:27;;;;;;;10.93;7.30;;;4.90;99.90;;;;;;5105491;28;20211;-72
2021/01/25 11:34:53;;;;;;;8.32;6.72;;;4.80;99.90;;;;;;5108586;28;20714;-72
2021/01/25 11:37:20;;;;;;;12.05;7.45;;;4.90;99.90;;;;;;5105951;28;20223;-72
2021/01/25 11:39:46;;;;;;;8.57;6.45;;;4.90;99.90;;;;;;5109181;28;20291;-72
2021/01/25 11:42:13;;;;;;;8.38;6.65;;;4.90;99.90;;;;;;5105632;28;20193;-72
2021/01/25 11:44:39;;;;;;;8.43;6.07;;;4.90;99.90;;;;;;5101836;28;20189;-73
2021/01/25 11:47:06;;;;;;;9.15;7.47;;;4.90;99.90;;;;;;5111228;28;20189;-73
2021/01/25 11:49:32;;;;;;;7.88;6.70;;;4.90;99.90;;;;;;5104323;28;20192;-72
2021/01/25 11:51:58;;;;;;;8.18;6.00;;;4.80;99.90;;;;;;5103775;28;20209;-72
2021/01/25 11:54:26;;;;;;;8.57;7.40;;;4.90;99.90;;;;;;5102742;28;20629;-72
2021/01/25 11:56:52;;;;;;;9.23;7.35;;;5.00;99.90;;;;;;5107446;27;20197;-70
2021/01/25 11:59:19;;;;;;;7.63;6.82;;;5.10;99.90;;;;;;5107488;28;20202;-70
2021/01/25 12:01:46;;;;;;;8.35;7.03;;;5.10;99.90;;;;;;5107182;28;20204;-70
2021/01/25 12:04:12;;;;;;;6.95;6.22;;;5.10;99.90;;;;;;5106615;28;20197;-71
2021/01/25 12:06:38;;;;;;;8.88;6.85;;;5.10;99.90;;;;;;5108314;28;20196;-70
2021/01/25 12:09:05;;;;;;;9.45;7.13;;;5.10;99.90;;;;;;5106230;28;20642;-70
2021/01/25 12:11:32;;;;;;;7.82;7.03;;;5.10;99.90;;;;;;5108704;28;20244;-70
2021/01/25 12:13:58;;;;;;;8.75;6.93;;;5.10;99.90;;;;;;5108549;28;20198;-70
2021/01/25 12:16:25;;;;;;;7.80;6.32;;;5.00;99.90;;;;;;5107528;28;20197;-71
2021/01/25 12:18:51;;;;;;;9.20;6.30;;;5.10;99.90;;;;;;5106887;27;20228;-70
2021/01/25 12:21:18;;;;;;;7.40;6.50;;;5.10;99.90;;;;;;5108100;27;20193;-72
2021/01/25 12:23:44;;;;;;;7.97;6.97;;;5.10;99.90;;;;;;5102448;28;20197;-71
2021/01/25 12:26:11;;;;;;;7.20;5.85;;;5.10;99.90;;;;;;5109047;27;20596;-71
2021/01/25 12:28:38;;;;;;;7.95;6.72;;;5.20;99.90;;;;;;5107406;28;20200;-71
2021/01/25 12:31:06;;;;;;;8.65;6.82;;;5.30;99.90;;;;;;5107730;27;20203;-72
2021/01/25 12:33:33;;;;;;;8.38;6.78;;;5.20;99.90;;;;;;5108834;27;20221;-71
2021/01/25 12:36:00;;;;;;;8.43;6.03;;;5.20;99.90;;;;;;5109394;28;20211;-71
2021/01/25 12:38:26;;;;;;;7.20;5.90;;;5.20;99.90;;;;;;5098345;27;20245;-70
2021/01/25 12:40:53;;;;;;;7.22;6.10;;;5.20;99.90;;;;;;5107389;27;20196;-72
2021/01/25 12:43:19;;;;;;;10.95;7.53;;;5.20;99.90;;;;;;5104422;28;20195;-71
2021/01/25 12:45:47;;;;;;;8.25;6.55;;;5.20;99.90;;;;;;5104773;28;20774;-70
2021/01/25 12:48:13;;;;;;;7.50;6.20;;;5.20;99.90;;;;;;5108944;28;20195;-72
2021/01/25 12:50:39;;;;;;;11.07;6.53;;;5.30;99.90;;;;;;5108521;28;20203;-71
2021/01/25 12:53:06;;;;;;;7.80;6.85;;;5.20;99.90;;;;;;5109826;28;20197;-71
2021/01/25 12:55:32;;;;;;;9.10;6.63;;;5.10;99.90;;;;;;5107444;28;20202;-70
2021/01/25 12:57:59;;;;;;;6.72;6.05;;;5.10;99.90;;;;;;5108579;28;20677;-71